This is the latest recevied weather packets stored in our database for station/object W2GUX. If no packets are shown the sender has not sent any weather packets the latest 1 day(s).
| Time | Temp. | Humidity | Pressure | Rain* | Wind** | Luminosity | Snow |
|---|---|---|---|---|---|---|---|
| 1778011804 | 28.89° C | 22% | 1003.6 hPa | 0 mm | 4.92 m/s, 184° | - | - |
| 1778011504 | 28.89° C | 21% | 1003.7 hPa | 0 mm | 3.13 m/s, 190° | - | - |
| 1778011203 | 28.89° C | 22% | 1003.7 hPa | 0 mm | 3.58 m/s, 194° | - | - |
| 1778010903 | 28.89° C | 23% | 1003.6 hPa | 0 mm | 3.13 m/s, 197° | - | - |
| 1778010604 | 28.89° C | 23% | 1003.8 hPa | 0 mm | 3.58 m/s, 192° | - | - |
| 1778010303 | 28.89° C | 24% | 1003.8 hPa | 0 mm | 4.47 m/s, 188° | - | - |
| 1778010003 | 28.89° C | 23% | 1004 hPa | 0 mm | 4.92 m/s, 189° | - | - |
| 1778009703 | 28.89° C | 22% | 1004 hPa | 0 mm | 4.47 m/s, 190° | - | - |
| 1778009403 | 29.44° C | 23% | 1004 hPa | 0 mm | 3.58 m/s, 194° | - | - |
| 1778009104 | 28.89° C | 24% | 1004 hPa | 0 mm | 4.02 m/s, 191° | - | - |
| 1778008804 | 28.89° C | 24% | 1004.2 hPa | 0 mm | 4.02 m/s, 192° | - | - |
| 1778008503 | 29.44° C | 22% | 1004.2 hPa | 0 mm | 3.58 m/s, 198° | - | - |
| 1778008203 | 28.89° C | 23% | 1004.3 hPa | 0 mm | 4.02 m/s, 195° | - | - |
| 1778007903 | 28.89° C | 22% | 1004.5 hPa | 0 mm | 5.36 m/s, 189° | - | - |
| 1778007604 | 28.89° C | 23% | 1004.4 hPa | 0 mm | 4.02 m/s, 189° | - | - |
| 1778007304 | 29.44° C | 24% | 1004.4 hPa | 0 mm | 4.02 m/s, 191° | - | - |
| 1778007003 | 28.89° C | 22% | 1004.6 hPa | 0 mm | 5.36 m/s, 189° | - | - |
| 1778006703 | 28.89° C | 23% | 1004.8 hPa | 0 mm | 4.47 m/s, 189° | - | - |
| 1778006404 | 29.44° C | 24% | 1004.9 hPa | 0 mm | 4.02 m/s, 198° | - | - |
| 1778006104 | 29.44° C | 25% | 1005 hPa | 0 mm | 3.58 m/s, 204° | - | - |
| 1778005804 | 28.89° C | 25% | 1004.8 hPa | 0 mm | 3.13 m/s, 199° | - | - |
| 1778005503 | 28.89° C | 26% | 1004.9 hPa | 0 mm | 3.13 m/s, 187° | - | - |
| 1778005203 | 28.89° C | 27% | 1004.8 hPa | 0 mm | 4.02 m/s, 184° | - | - |
| 1778004903 | 28.89° C | 26% | 1004.9 hPa | 0 mm | 3.58 m/s, 182° | - | - |
| 1778004604 | 29.44° C | 26% | 1005 hPa | 0 mm | 2.24 m/s, 186° | - | - |
* Rain latest hour (hover to see other rain measurements)
** Current wind speed in m/s (hover to see current wind gust speed)